sensor_id;sensor_type;location;lat;lon;timestamp;P1;durP1;ratioP1;P2;durP2;ratioP2
13250;SDS011;6692;50.710;7.180;2024-03-06T00:01:59;8.50;;;7.67;;
13250;SDS011;6692;50.710;7.180;2024-03-06T00:04:00;9.10;;;7.27;;
13250;SDS011;6692;50.710;7.180;2024-03-06T00:06:00;7.20;;;6.50;;
13250;SDS011;6692;50.710;7.180;2024-03-06T00:08:01;7.73;;;6.50;;
13250;SDS011;6692;50.710;7.180;2024-03-06T00:10:02;6.27;;;5.67;;
13250;SDS011;6692;50.710;7.180;2024-03-06T00:12:04;6.43;;;5.83;;
13250;SDS011;6692;50.710;7.180;2024-03-06T00:14:05;6.40;;;5.80;;
13250;SDS011;6692;50.710;7.180;2024-03-06T00:16:06;5.90;;;5.30;;
13250;SDS011;6692;50.710;7.180;2024-03-06T00:18:07;6.83;;;6.17;;
13250;SDS011;6692;50.710;7.180;2024-03-06T00:20:08;6.07;;;5.47;;
13250;SDS011;6692;50.710;7.180;2024-03-06T00:22:09;6.03;;;5.43;;
13250;SDS011;6692;50.710;7.180;2024-03-06T00:24:11;6.13;;;5.50;;
13250;SDS011;6692;50.710;7.180;2024-03-06T00:26:12;7.43;;;6.10;;
13250;SDS011;6692;50.710;7.180;2024-03-06T00:28:12;6.03;;;5.43;;
13250;SDS011;6692;50.710;7.180;2024-03-06T00:30:13;6.10;;;5.50;;
13250;SDS011;6692;50.710;7.180;2024-03-06T00:32:14;6.47;;;5.70;;
13250;SDS011;6692;50.710;7.180;2024-03-06T00:34:14;6.30;;;5.47;;
13250;SDS011;6692;50.710;7.180;2024-03-06T00:36:15;6.47;;;5.67;;
13250;SDS011;6692;50.710;7.180;2024-03-06T00:38:16;6.57;;;5.87;;
13250;SDS011;6692;50.710;7.180;2024-03-06T00:40:16;6.57;;;5.63;;
13250;SDS011;6692;50.710;7.180;2024-03-06T00:42:17;7.30;;;6.13;;
13250;SDS011;6692;50.710;7.180;2024-03-06T00:44:18;7.43;;;6.23;;
13250;SDS011;6692;50.710;7.180;2024-03-06T00:46:18;8.83;;;7.03;;
13250;SDS011;6692;50.710;7.180;2024-03-06T00:48:19;8.07;;;6.73;;
13250;SDS011;6692;50.710;7.180;2024-03-06T00:50:21;8.20;;;6.70;;
13250;SDS011;6692;50.710;7.180;2024-03-06T00:52:21;7.07;;;6.37;;
13250;SDS011;6692;50.710;7.180;2024-03-06T00:54:22;7.20;;;6.30;;
13250;SDS011;6692;50.710;7.180;2024-03-06T00:56:23;7.63;;;6.23;;
13250;SDS011;6692;50.710;7.180;2024-03-06T00:58:24;6.67;;;5.90;;
13250;SDS011;6692;50.710;7.180;2024-03-06T01:00:25;6.97;;;6.27;;
13250;SDS011;6692;50.710;7.180;2024-03-06T01:02:25;6.30;;;5.70;;
13250;SDS011;6692;50.710;7.180;2024-03-06T01:04:27;8.03;;;6.67;;
13250;SDS011;6692;50.710;7.180;2024-03-06T01:06:28;7.37;;;6.03;;
13250;SDS011;6692;50.710;7.180;2024-03-06T01:08:28;6.30;;;5.70;;
13250;SDS011;6692;50.710;7.180;2024-03-06T01:10:29;6.87;;;6.23;;
13250;SDS011;6692;50.710;7.180;2024-03-06T01:12:30;7.07;;;6.37;;
13250;SDS011;6692;50.710;7.180;2024-03-06T01:14:31;6.40;;;5.67;;
13250;SDS011;6692;50.710;7.180;2024-03-06T01:16:31;6.57;;;5.90;;
13250;SDS011;6692;50.710;7.180;2024-03-06T01:18:32;7.07;;;6.33;;
13250;SDS011;6692;50.710;7.180;2024-03-06T01:20:33;6.97;;;6.27;;
13250;SDS011;6692;50.710;7.180;2024-03-06T01:22:34;6.67;;;5.70;;
13250;SDS011;6692;50.710;7.180;2024-03-06T01:24:34;6.47;;;5.83;;
13250;SDS011;6692;50.710;7.180;2024-03-06T01:26:35;6.33;;;5.70;;
13250;SDS011;6692;50.710;7.180;2024-03-06T01:28:36;5.90;;;5.30;;
13250;SDS011;6692;50.710;7.180;2024-03-06T01:30:36;6.50;;;5.50;;
13250;SDS011;6692;50.710;7.180;2024-03-06T01:32:37;5.63;;;5.10;;
13250;SDS011;6692;50.710;7.180;2024-03-06T01:34:38;5.97;;;5.37;;
13250;SDS011;6692;50.710;7.180;2024-03-06T01:36:39;5.57;;;5.07;;
13250;SDS011;6692;50.710;7.180;2024-03-06T01:38:40;5.20;;;4.70;;
13250;SDS011;6692;50.710;7.180;2024-03-06T01:40:43;5.17;;;4.67;;
13250;SDS011;6692;50.710;7.180;2024-03-06T01:42:43;5.33;;;4.83;;
13250;SDS011;6692;50.710;7.180;2024-03-06T01:44:44;5.40;;;4.77;;
13250;SDS011;6692;50.710;7.180;2024-03-06T01:46:46;5.13;;;4.53;;
13250;SDS011;6692;50.710;7.180;2024-03-06T01:48:47;4.60;;;4.20;;
13250;SDS011;6692;50.710;7.180;2024-03-06T01:50:48;4.40;;;4.00;;
13250;SDS011;6692;50.710;7.180;2024-03-06T01:52:49;5.30;;;4.80;;
13250;SDS011;6692;50.710;7.180;2024-03-06T01:54:50;5.30;;;4.80;;
13250;SDS011;6692;50.710;7.180;2024-03-06T01:56:50;4.60;;;4.20;;
13250;SDS011;6692;50.710;7.180;2024-03-06T01:58:51;4.63;;;4.20;;
13250;SDS011;6692;50.710;7.180;2024-03-06T02:00:53;4.37;;;4.07;;
13250;SDS011;6692;50.710;7.180;2024-03-06T02:02:53;4.50;;;4.10;;
13250;SDS011;6692;50.710;7.180;2024-03-06T02:04:55;4.87;;;4.40;;
13250;SDS011;6692;50.710;7.180;2024-03-06T02:06:55;6.40;;;5.80;;
13250;SDS011;6692;50.710;7.180;2024-03-06T02:08:56;5.50;;;5.00;;
13250;SDS011;6692;50.710;7.180;2024-03-06T02:10:57;5.37;;;4.87;;
13250;SDS011;6692;50.710;7.180;2024-03-06T02:12:57;5.50;;;5.00;;
13250;SDS011;6692;50.710;7.180;2024-03-06T02:14:58;4.63;;;4.23;;
13250;SDS011;6692;50.710;7.180;2024-03-06T02:16:59;4.90;;;4.40;;
13250;SDS011;6692;50.710;7.180;2024-03-06T02:19:00;5.17;;;4.67;;
13250;SDS011;6692;50.710;7.180;2024-03-06T02:21:00;5.07;;;4.47;;
13250;SDS011;6692;50.710;7.180;2024-03-06T02:23:01;5.50;;;4.83;;
13250;SDS011;6692;50.710;7.180;2024-03-06T02:25:02;5.43;;;4.77;;
13250;SDS011;6692;50.710;7.180;2024-03-06T02:27:03;5.23;;;4.73;;
13250;SDS011;6692;50.710;7.180;2024-03-06T02:29:04;4.97;;;4.47;;
13250;SDS011;6692;50.710;7.180;2024-03-06T02:31:04;5.10;;;4.63;;
13250;SDS011;6692;50.710;7.180;2024-03-06T02:33:05;4.70;;;4.30;;
13250;SDS011;6692;50.710;7.180;2024-03-06T02:35:06;4.63;;;4.23;;
13250;SDS011;6692;50.710;7.180;2024-03-06T02:37:08;4.63;;;4.13;;
13250;SDS011;6692;50.710;7.180;2024-03-06T02:39:09;4.73;;;4.33;;
13250;SDS011;6692;50.710;7.180;2024-03-06T02:41:10;4.80;;;4.30;;
13250;SDS011;6692;50.710;7.180;2024-03-06T02:43:10;4.37;;;3.93;;
13250;SDS011;6692;50.710;7.180;2024-03-06T02:45:11;4.50;;;4.10;;
13250;SDS011;6692;50.710;7.180;2024-03-06T02:47:12;5.00;;;4.50;;
13250;SDS011;6692;50.710;7.180;2024-03-06T02:49:12;4.70;;;4.20;;
13250;SDS011;6692;50.710;7.180;2024-03-06T02:51:17;4.30;;;3.90;;
13250;SDS011;6692;50.710;7.180;2024-03-06T02:53:14;4.63;;;4.23;;
13250;SDS011;6692;50.710;7.180;2024-03-06T02:55:15;3.93;;;3.60;;
13250;SDS011;6692;50.710;7.180;2024-03-06T02:57:16;5.10;;;4.30;;
13250;SDS011;6692;50.710;7.180;2024-03-06T02:59:18;4.23;;;3.83;;
13250;SDS011;6692;50.710;7.180;2024-03-06T03:01:18;3.90;;;3.60;;
13250;SDS011;6692;50.710;7.180;2024-03-06T03:03:19;4.50;;;4.10;;
13250;SDS011;6692;50.710;7.180;2024-03-06T03:05:20;3.80;;;3.43;;
13250;SDS011;6692;50.710;7.180;2024-03-06T03:07:20;3.97;;;3.67;;
13250;SDS011;6692;50.710;7.180;2024-03-06T03:09:21;4.63;;;4.20;;
13250;SDS011;6692;50.710;7.180;2024-03-06T03:11:22;3.97;;;3.60;;
13250;SDS011;6692;50.710;7.180;2024-03-06T03:13:22;3.80;;;3.50;;
13250;SDS011;6692;50.710;7.180;2024-03-06T03:15:23;3.80;;;3.50;;
13250;SDS011;6692;50.710;7.180;2024-03-06T03:17:24;3.13;;;2.93;;
13250;SDS011;6692;50.710;7.180;2024-03-06T03:19:25;3.50;;;3.20;;
13250;SDS011;6692;50.710;7.180;2024-03-06T03:21:26;3.20;;;3.00;;
13250;SDS011;6692;50.710;7.180;2024-03-06T03:23:27;3.23;;;2.93;;
13250;SDS011;6692;50.710;7.180;2024-03-06T03:25:27;3.40;;;3.10;;
13250;SDS011;6692;50.710;7.180;2024-03-06T03:27:29;2.97;;;2.77;;
13250;SDS011;6692;50.710;7.180;2024-03-06T03:29:29;3.40;;;3.10;;
13250;SDS011;6692;50.710;7.180;2024-03-06T03:31:30;3.20;;;2.90;;
13250;SDS011;6692;50.710;7.180;2024-03-06T03:33:31;3.23;;;3.00;;
13250;SDS011;6692;50.710;7.180;2024-03-06T03:35:31;3.13;;;2.83;;
13250;SDS011;6692;50.710;7.180;2024-03-06T03:37:32;3.30;;;3.00;;
13250;SDS011;6692;50.710;7.180;2024-03-06T03:39:34;3.60;;;3.30;;
13250;SDS011;6692;50.710;7.180;2024-03-06T03:41:34;3.07;;;2.77;;
13250;SDS011;6692;50.710;7.180;2024-03-06T03:43:35;3.60;;;3.30;;
13250;SDS011;6692;50.710;7.180;2024-03-06T03:45:36;4.30;;;3.90;;
13250;SDS011;6692;50.710;7.180;2024-03-06T03:47:37;3.63;;;3.33;;
13250;SDS011;6692;50.710;7.180;2024-03-06T03:49:38;4.20;;;3.80;;
13250;SDS011;6692;50.710;7.180;2024-03-06T03:51:38;4.10;;;3.67;;
13250;SDS011;6692;50.710;7.180;2024-03-06T03:53:39;4.43;;;4.03;;
13250;SDS011;6692;50.710;7.180;2024-03-06T03:55:40;4.83;;;4.07;;
13250;SDS011;6692;50.710;7.180;2024-03-06T03:57:40;5.40;;;4.50;;
13250;SDS011;6692;50.710;7.180;2024-03-06T03:59:41;4.70;;;4.20;;
13250;SDS011;6692;50.710;7.180;2024-03-06T04:01:44;5.60;;;4.50;;
13250;SDS011;6692;50.710;7.180;2024-03-06T04:03:43;5.10;;;4.57;;
13250;SDS011;6692;50.710;7.180;2024-03-06T04:05:45;4.83;;;4.10;;
13250;SDS011;6692;50.710;7.180;2024-03-06T04:07:45;4.17;;;3.77;;
13250;SDS011;6692;50.710;7.180;2024-03-06T04:09:46;5.73;;;4.30;;
13250;SDS011;6692;50.710;7.180;2024-03-06T04:11:47;4.63;;;4.23;;
13250;SDS011;6692;50.710;7.180;2024-03-06T04:13:47;4.20;;;3.57;;
13250;SDS011;6692;50.710;7.180;2024-03-06T04:15:48;4.50;;;4.10;;
13250;SDS011;6692;50.710;7.180;2024-03-06T04:17:50;4.30;;;3.90;;
13250;SDS011;6692;50.710;7.180;2024-03-06T04:19:50;4.20;;;3.77;;
13250;SDS011;6692;50.710;7.180;2024-03-06T04:21:50;4.17;;;3.80;;
13250;SDS011;6692;50.710;7.180;2024-03-06T04:23:51;4.00;;;3.37;;
13250;SDS011;6692;50.710;7.180;2024-03-06T04:25:52;4.67;;;4.27;;
13250;SDS011;6692;50.710;7.180;2024-03-06T04:27:52;3.90;;;3.57;;
13250;SDS011;6692;50.710;7.180;2024-03-06T04:29:53;4.40;;;3.97;;
13250;SDS011;6692;50.710;7.180;2024-03-06T04:31:54;4.07;;;3.67;;
13250;SDS011;6692;50.710;7.180;2024-03-06T04:33:54;3.93;;;3.53;;
13250;SDS011;6692;50.710;7.180;2024-03-06T04:35:55;4.63;;;4.00;;
13250;SDS011;6692;50.710;7.180;2024-03-06T04:37:56;4.17;;;3.60;;
13250;SDS011;6692;50.710;7.180;2024-03-06T04:39:56;4.10;;;3.70;;
13250;SDS011;6692;50.710;7.180;2024-03-06T04:41:57;4.03;;;3.63;;
13250;SDS011;6692;50.710;7.180;2024-03-06T04:43:58;6.07;;;3.50;;
13250;SDS011;6692;50.710;7.180;2024-03-06T04:45:59;4.10;;;3.70;;
13250;SDS011;6692;50.710;7.180;2024-03-06T04:48:01;4.17;;;3.77;;
13250;SDS011;6692;50.710;7.180;2024-03-06T04:50:01;4.97;;;4.23;;
13250;SDS011;6692;50.710;7.180;2024-03-06T04:52:03;3.90;;;3.53;;
13250;SDS011;6692;50.710;7.180;2024-03-06T04:54:03;4.50;;;3.97;;
13250;SDS011;6692;50.710;7.180;2024-03-06T04:56:04;4.03;;;3.57;;
13250;SDS011;6692;50.710;7.180;2024-03-06T04:58:05;3.60;;;3.30;;
13250;SDS011;6692;50.710;7.180;2024-03-06T05:00:07;3.80;;;3.30;;
13250;SDS011;6692;50.710;7.180;2024-03-06T05:02:09;3.67;;;3.37;;
13250;SDS011;6692;50.710;7.180;2024-03-06T05:04:10;3.73;;;3.43;;
13250;SDS011;6692;50.710;7.180;2024-03-06T05:06:10;3.60;;;3.30;;
13250;SDS011;6692;50.710;7.180;2024-03-06T05:08:11;5.20;;;4.23;;
13250;SDS011;6692;50.710;7.180;2024-03-06T05:10:12;4.43;;;3.90;;
13250;SDS011;6692;50.710;7.180;2024-03-06T05:12:12;4.13;;;3.73;;
13250;SDS011;6692;50.710;7.180;2024-03-06T05:14:13;3.80;;;3.50;;
13250;SDS011;6692;50.710;7.180;2024-03-06T05:16:14;4.23;;;3.83;;
13250;SDS011;6692;50.710;7.180;2024-03-06T05:18:15;4.57;;;4.17;;
13250;SDS011;6692;50.710;7.180;2024-03-06T05:20:16;4.33;;;3.37;;
13250;SDS011;6692;50.710;7.180;2024-03-06T05:22:17;3.90;;;3.50;;
13250;SDS011;6692;50.710;7.180;2024-03-06T05:24:17;4.00;;;3.60;;
13250;SDS011;6692;50.710;7.180;2024-03-06T05:26:18;4.00;;;3.63;;
13250;SDS011;6692;50.710;7.180;2024-03-06T05:28:19;4.50;;;4.10;;
13250;SDS011;6692;50.710;7.180;2024-03-06T05:30:20;4.33;;;3.93;;
13250;SDS011;6692;50.710;7.180;2024-03-06T05:32:20;4.93;;;4.43;;
13250;SDS011;6692;50.710;7.180;2024-03-06T05:34:21;5.03;;;4.53;;
13250;SDS011;6692;50.710;7.180;2024-03-06T05:36:22;6.37;;;4.73;;
13250;SDS011;6692;50.710;7.180;2024-03-06T05:38:22;6.90;;;5.70;;
13250;SDS011;6692;50.710;7.180;2024-03-06T05:40:23;6.50;;;5.80;;
13250;SDS011;6692;50.710;7.180;2024-03-06T05:42:24;6.53;;;5.90;;
13250;SDS011;6692;50.710;7.180;2024-03-06T05:44:24;7.13;;;6.43;;
13250;SDS011;6692;50.710;7.180;2024-03-06T05:46:25;7.27;;;6.50;;
13250;SDS011;6692;50.710;7.180;2024-03-06T05:48:26;7.53;;;6.47;;
13250;SDS011;6692;50.710;7.180;2024-03-06T05:50:26;7.73;;;6.50;;
13250;SDS011;6692;50.710;7.180;2024-03-06T05:52:27;8.63;;;6.60;;
13250;SDS011;6692;50.710;7.180;2024-03-06T05:54:28;6.63;;;5.50;;
13250;SDS011;6692;50.710;7.180;2024-03-06T05:56:28;5.93;;;5.33;;
13250;SDS011;6692;50.710;7.180;2024-03-06T05:58:29;6.23;;;5.33;;
13250;SDS011;6692;50.710;7.180;2024-03-06T06:00:30;6.07;;;5.27;;
13250;SDS011;6692;50.710;7.180;2024-03-06T06:02:31;5.40;;;4.90;;
13250;SDS011;6692;50.710;7.180;2024-03-06T06:04:32;5.50;;;4.83;;
13250;SDS011;6692;50.710;7.180;2024-03-06T06:06:33;5.93;;;5.23;;
13250;SDS011;6692;50.710;7.180;2024-03-06T06:08:34;5.43;;;4.80;;
13250;SDS011;6692;50.710;7.180;2024-03-06T06:10:35;5.23;;;4.73;;
13250;SDS011;6692;50.710;7.180;2024-03-06T06:12:36;6.07;;;5.00;;
13250;SDS011;6692;50.710;7.180;2024-03-06T06:14:37;5.73;;;5.23;;
13250;SDS011;6692;50.710;7.180;2024-03-06T06:16:38;5.47;;;4.97;;
13250;SDS011;6692;50.710;7.180;2024-03-06T06:18:40;6.07;;;4.93;;
13250;SDS011;6692;50.710;7.180;2024-03-06T06:20:41;4.73;;;4.33;;
13250;SDS011;6692;50.710;7.180;2024-03-06T06:22:42;5.57;;;4.97;;
13250;SDS011;6692;50.710;7.180;2024-03-06T06:24:42;5.10;;;4.60;;
13250;SDS011;6692;50.710;7.180;2024-03-06T06:26:43;5.03;;;4.53;;
13250;SDS011;6692;50.710;7.180;2024-03-06T06:28:44;5.53;;;5.03;;
13250;SDS011;6692;50.710;7.180;2024-03-06T06:30:44;5.60;;;5.10;;
13250;SDS011;6692;50.710;7.180;2024-03-06T06:32:45;5.17;;;4.67;;
13250;SDS011;6692;50.710;7.180;2024-03-06T06:34:46;5.60;;;5.10;;
13250;SDS011;6692;50.710;7.180;2024-03-06T06:36:46;6.53;;;5.40;;
13250;SDS011;6692;50.710;7.180;2024-03-06T06:38:47;5.77;;;4.93;;
13250;SDS011;6692;50.710;7.180;2024-03-06T06:40:48;5.80;;;5.20;;
13250;SDS011;6692;50.710;7.180;2024-03-06T06:42:49;7.23;;;6.37;;
13250;SDS011;6692;50.710;7.180;2024-03-06T06:44:51;8.02;;;6.50;;
13250;SDS011;6692;50.710;7.180;2024-03-06T06:46:52;7.07;;;6.37;;
13250;SDS011;6692;50.710;7.180;2024-03-06T06:48:53;7.33;;;6.57;;
13250;SDS011;6692;50.710;7.180;2024-03-06T06:50:54;7.03;;;5.93;;
13250;SDS011;6692;50.710;7.180;2024-03-06T06:52:54;6.43;;;5.73;;
13250;SDS011;6692;50.710;7.180;2024-03-06T06:54:56;5.77;;;4.97;;
13250;SDS011;6692;50.710;7.180;2024-03-06T06:56:57;6.70;;;5.70;;
13250;SDS011;6692;50.710;7.180;2024-03-06T06:58:57;6.13;;;5.53;;
13250;SDS011;6692;50.710;7.180;2024-03-06T07:00:59;7.03;;;6.33;;
13250;SDS011;6692;50.710;7.180;2024-03-06T07:02:59;6.10;;;5.50;;
13250;SDS011;6692;50.710;7.180;2024-03-06T07:05:00;5.87;;;5.27;;
13250;SDS011;6692;50.710;7.180;2024-03-06T07:07:01;5.73;;;4.77;;
13250;SDS011;6692;50.710;7.180;2024-03-06T07:09:01;4.70;;;4.20;;
13250;SDS011;6692;50.710;7.180;2024-03-06T07:11:02;4.80;;;4.30;;
13250;SDS011;6692;50.710;7.180;2024-03-06T07:13:03;5.33;;;4.73;;
13250;SDS011;6692;50.710;7.180;2024-03-06T07:15:04;5.57;;;4.83;;
13250;SDS011;6692;50.710;7.180;2024-03-06T07:17:06;5.50;;;4.90;;
13250;SDS011;6692;50.710;7.180;2024-03-06T07:19:06;5.73;;;5.13;;
13250;SDS011;6692;50.710;7.180;2024-03-06T07:21:07;6.23;;;5.03;;
13250;SDS011;6692;50.710;7.180;2024-03-06T07:23:08;5.67;;;4.90;;
13250;SDS011;6692;50.710;7.180;2024-03-06T07:25:09;5.53;;;5.03;;
13250;SDS011;6692;50.710;7.180;2024-03-06T07:27:10;6.43;;;5.60;;
13250;SDS011;6692;50.710;7.180;2024-03-06T07:29:11;5.43;;;4.90;;
13250;SDS011;6692;50.710;7.180;2024-03-06T07:31:14;5.40;;;4.30;;
13250;SDS011;6692;50.710;7.180;2024-03-06T07:33:15;5.63;;;5.13;;
13250;SDS011;6692;50.710;7.180;2024-03-06T07:35:15;6.53;;;5.67;;
13250;SDS011;6692;50.710;7.180;2024-03-06T07:37:16;5.50;;;4.60;;
13250;SDS011;6692;50.710;7.180;2024-03-06T07:39:18;5.90;;;5.30;;
13250;SDS011;6692;50.710;7.180;2024-03-06T07:41:18;5.43;;;4.93;;
13250;SDS011;6692;50.710;7.180;2024-03-06T07:43:18;5.70;;;5.03;;
13250;SDS011;6692;50.710;7.180;2024-03-06T07:45:19;5.37;;;4.73;;
13250;SDS011;6692;50.710;7.180;2024-03-06T07:47:20;5.60;;;5.10;;
13250;SDS011;6692;50.710;7.180;2024-03-06T07:49:21;5.43;;;4.70;;
13250;SDS011;6692;50.710;7.180;2024-03-06T07:51:22;5.50;;;4.73;;
13250;SDS011;6692;50.710;7.180;2024-03-06T07:53:23;6.17;;;5.07;;
13250;SDS011;6692;50.710;7.180;2024-03-06T07:55:23;6.77;;;5.10;;
13250;SDS011;6692;50.710;7.180;2024-03-06T07:57:24;5.40;;;4.87;;
13250;SDS011;6692;50.710;7.180;2024-03-06T07:59:26;5.27;;;4.77;;
13250;SDS011;6692;50.710;7.180;2024-03-06T08:01:26;5.20;;;4.70;;
13250;SDS011;6692;50.710;7.180;2024-03-06T08:03:28;6.00;;;5.40;;
13250;SDS011;6692;50.710;7.180;2024-03-06T08:05:29;5.93;;;5.33;;
13250;SDS011;6692;50.710;7.180;2024-03-06T08:07:29;6.87;;;6.03;;
13250;SDS011;6692;50.710;7.180;2024-03-06T08:09:30;7.37;;;6.03;;
13250;SDS011;6692;50.710;7.180;2024-03-06T08:11:31;8.70;;;7.67;;
13250;SDS011;6692;50.710;7.180;2024-03-06T08:13:31;8.10;;;6.67;;
13250;SDS011;6692;50.710;7.180;2024-03-06T08:15:32;8.70;;;7.80;;
13250;SDS011;6692;50.710;7.180;2024-03-06T08:17:33;9.20;;;7.40;;
13250;SDS011;6692;50.710;7.180;2024-03-06T08:19:34;10.17;;;8.07;;
13250;SDS011;6692;50.710;7.180;2024-03-06T08:21:35;9.40;;;7.77;;
13250;SDS011;6692;50.710;7.180;2024-03-06T08:23:36;9.77;;;7.57;;
13250;SDS011;6692;50.710;7.180;2024-03-06T08:25:36;8.63;;;7.30;;
13250;SDS011;6692;50.710;7.180;2024-03-06T08:27:39;10.30;;;7.63;;
13250;SDS011;6692;50.710;7.180;2024-03-06T08:29:39;9.33;;;7.77;;
13250;SDS011;6692;50.710;7.180;2024-03-06T08:31:40;10.07;;;7.47;;
13250;SDS011;6692;50.710;7.180;2024-03-06T08:33:41;10.83;;;7.77;;
13250;SDS011;6692;50.710;7.180;2024-03-06T08:35:41;8.40;;;7.37;;
13250;SDS011;6692;50.710;7.180;2024-03-06T08:37:42;10.73;;;7.53;;
13250;SDS011;6692;50.710;7.180;2024-03-06T08:39:43;9.93;;;8.23;;
13250;SDS011;6692;50.710;7.180;2024-03-06T08:41:43;10.33;;;8.23;;
13250;SDS011;6692;50.710;7.180;2024-03-06T08:43:44;11.77;;;8.67;;
13250;SDS011;6692;50.710;7.180;2024-03-06T08:45:48;12.93;;;9.23;;
13250;SDS011;6692;50.710;7.180;2024-03-06T08:47:48;14.30;;;9.70;;
13250;SDS011;6692;50.710;7.180;2024-03-06T08:49:49;14.90;;;10.70;;
13250;SDS011;6692;50.710;7.180;2024-03-06T08:51:50;15.87;;;10.93;;
13250;SDS011;6692;50.710;7.180;2024-03-06T08:53:50;16.37;;;11.67;;
13250;SDS011;6692;50.710;7.180;2024-03-06T08:55:52;17.37;;;11.87;;
13250;SDS011;6692;50.710;7.180;2024-03-06T08:57:52;15.50;;;11.37;;
13250;SDS011;6692;50.710;7.180;2024-03-06T08:59:53;17.77;;;11.63;;
13250;SDS011;6692;50.710;7.180;2024-03-06T09:01:54;16.10;;;11.70;;
13250;SDS011;6692;50.710;7.180;2024-03-06T09:03:54;19.03;;;12.53;;
13250;SDS011;6692;50.710;7.180;2024-03-06T09:05:55;17.63;;;12.30;;
13250;SDS011;6692;50.710;7.180;2024-03-06T09:07:57;17.73;;;12.73;;
13250;SDS011;6692;50.710;7.180;2024-03-06T09:09:58;19.60;;;13.23;;
13250;SDS011;6692;50.710;7.180;2024-03-06T09:11:59;18.50;;;12.77;;
13250;SDS011;6692;50.710;7.180;2024-03-06T09:13:59;18.17;;;12.60;;
13250;SDS011;6692;50.710;7.180;2024-03-06T09:16:00;19.13;;;13.17;;
13250;SDS011;6692;50.710;7.180;2024-03-06T09:18:01;18.77;;;12.77;;
13250;SDS011;6692;50.710;7.180;2024-03-06T09:20:01;19.53;;;13.30;;
13250;SDS011;6692;50.710;7.180;2024-03-06T09:22:08;18.67;;;12.80;;
13250;SDS011;6692;50.710;7.180;2024-03-06T09:24:10;16.07;;;12.03;;
13250;SDS011;6692;50.710;7.180;2024-03-06T09:26:10;18.47;;;12.27;;
13250;SDS011;6692;50.710;7.180;2024-03-06T09:28:12;15.20;;;11.50;;
13250;SDS011;6692;50.710;7.180;2024-03-06T09:30:13;14.50;;;10.97;;
13250;SDS011;6692;50.710;7.180;2024-03-06T09:32:14;17.07;;;11.63;;
13250;SDS011;6692;50.710;7.180;2024-03-06T09:34:15;15.07;;;11.03;;
13250;SDS011;6692;50.710;7.180;2024-03-06T09:36:16;13.93;;;10.33;;
13250;SDS011;6692;50.710;7.180;2024-03-06T09:38:17;13.00;;;9.80;;
13250;SDS011;6692;50.710;7.180;2024-03-06T09:40:19;13.80;;;10.27;;
13250;SDS011;6692;50.710;7.180;2024-03-06T09:42:19;11.13;;;9.43;;
13250;SDS011;6692;50.710;7.180;2024-03-06T09:44:20;9.87;;;8.43;;
13250;SDS011;6692;50.710;7.180;2024-03-06T09:46:21;10.60;;;8.07;;
13250;SDS011;6692;50.710;7.180;2024-03-06T09:48:22;10.33;;;8.27;;
13250;SDS011;6692;50.710;7.180;2024-03-06T09:50:23;10.53;;;8.40;;
13250;SDS011;6692;50.710;7.180;2024-03-06T09:52:23;10.30;;;8.70;;
13250;SDS011;6692;50.710;7.180;2024-03-06T09:54:24;11.43;;;9.40;;
13250;SDS011;6692;50.710;7.180;2024-03-06T09:56:25;11.87;;;8.90;;
13250;SDS011;6692;50.710;7.180;2024-03-06T09:58:26;16.87;;;11.07;;
13250;SDS011;6692;50.710;7.180;2024-03-06T10:00:26;13.70;;;10.50;;
13250;SDS011;6692;50.710;7.180;2024-03-06T10:02:34;13.83;;;11.03;;
13250;SDS011;6692;50.710;7.180;2024-03-06T10:04:47;14.40;;;10.57;;
13250;SDS011;6692;50.710;7.180;2024-03-06T10:06:48;16.07;;;10.30;;
13250;SDS011;6692;50.710;7.180;2024-03-06T10:08:49;14.40;;;9.87;;
13250;SDS011;6692;50.710;7.180;2024-03-06T10:10:49;11.80;;;9.40;;
13250;SDS011;6692;50.710;7.180;2024-03-06T10:12:50;12.27;;;8.83;;
13250;SDS011;6692;50.710;7.180;2024-03-06T10:14:51;12.37;;;9.60;;
13250;SDS011;6692;50.710;7.180;2024-03-06T10:16:55;10.23;;;8.63;;
13250;SDS011;6692;50.710;7.180;2024-03-06T10:18:55;10.77;;;7.50;;
13250;SDS011;6692;50.710;7.180;2024-03-06T10:20:57;8.87;;;7.43;;
13250;SDS011;6692;50.710;7.180;2024-03-06T10:22:57;9.40;;;7.43;;
13250;SDS011;6692;50.710;7.180;2024-03-06T10:24:58;10.23;;;8.33;;
13250;SDS011;6692;50.710;7.180;2024-03-06T10:26:59;8.70;;;7.80;;
13250;SDS011;6692;50.710;7.180;2024-03-06T10:29:00;7.53;;;6.73;;
13250;SDS011;6692;50.710;7.180;2024-03-06T10:31:03;9.10;;;7.10;;
13250;SDS011;6692;50.710;7.180;2024-03-06T10:33:03;9.60;;;7.57;;
13250;SDS011;6692;50.710;7.180;2024-03-06T10:35:05;9.40;;;8.40;;
13250;SDS011;6692;50.710;7.180;2024-03-06T10:37:06;9.93;;;8.23;;
13250;SDS011;6692;50.710;7.180;2024-03-06T10:39:07;10.53;;;8.57;;
13250;SDS011;6692;50.710;7.180;2024-03-06T10:41:08;10.53;;;9.53;;
13250;SDS011;6692;50.710;7.180;2024-03-06T10:43:09;13.13;;;10.50;;
13250;SDS011;6692;50.710;7.180;2024-03-06T10:45:10;12.43;;;10.43;;
13250;SDS011;6692;50.710;7.180;2024-03-06T10:47:11;14.33;;;11.07;;
13250;SDS011;6692;50.710;7.180;2024-03-06T10:49:11;11.23;;;10.23;;
13250;SDS011;6692;50.710;7.180;2024-03-06T10:51:12;12.13;;;11.03;;
13250;SDS011;6692;50.710;7.180;2024-03-06T10:53:13;13.37;;;10.87;;
13250;SDS011;6692;50.710;7.180;2024-03-06T10:55:13;11.70;;;10.70;;
13250;SDS011;6692;50.710;7.180;2024-03-06T10:57:14;12.77;;;11.57;;
13250;SDS011;6692;50.710;7.180;2024-03-06T10:59:15;12.20;;;11.10;;
13250;SDS011;6692;50.710;7.180;2024-03-06T11:01:15;12.70;;;11.43;;
13250;SDS011;6692;50.710;7.180;2024-03-06T11:03:16;11.43;;;10.37;;
13250;SDS011;6692;50.710;7.180;2024-03-06T11:05:17;10.80;;;9.80;;
13250;SDS011;6692;50.710;7.180;2024-03-06T11:07:17;12.07;;;10.87;;
13250;SDS011;6692;50.710;7.180;2024-03-06T11:09:19;13.13;;;10.40;;
13250;SDS011;6692;50.710;7.180;2024-03-06T11:11:20;11.00;;;9.90;;
13250;SDS011;6692;50.710;7.180;2024-03-06T11:13:23;10.30;;;9.27;;
13250;SDS011;6692;50.710;7.180;2024-03-06T11:15:24;11.17;;;10.07;;
13250;SDS011;6692;50.710;7.180;2024-03-06T11:17:25;11.17;;;10.03;;
13250;SDS011;6692;50.710;7.180;2024-03-06T11:19:26;11.10;;;9.97;;
13250;SDS011;6692;50.710;7.180;2024-03-06T11:21:28;12.63;;;11.30;;
13250;SDS011;6692;50.710;7.180;2024-03-06T11:23:30;12.67;;;11.30;;
13250;SDS011;6692;50.710;7.180;2024-03-06T11:28:03;13.50;;;11.73;;
13250;SDS011;6692;50.710;7.180;2024-03-06T11:30:05;16.37;;;12.13;;
13250;SDS011;6692;50.710;7.180;2024-03-06T11:32:11;15.87;;;13.90;;
13250;SDS011;6692;50.710;7.180;2024-03-06T11:34:12;16.63;;;13.80;;
13250;SDS011;6692;50.710;7.180;2024-03-06T11:36:22;17.33;;;13.53;;
13250;SDS011;6692;50.710;7.180;2024-03-06T11:38:24;17.03;;;12.87;;
13250;SDS011;6692;50.710;7.180;2024-03-06T11:40:25;18.47;;;14.47;;
13250;SDS011;6692;50.710;7.180;2024-03-06T11:44:34;16.93;;;13.93;;
13250;SDS011;6692;50.710;7.180;2024-03-06T11:46:42;18.53;;;14.40;;
13250;SDS011;6692;50.710;7.180;2024-03-06T11:48:52;16.37;;;14.07;;
13250;SDS011;6692;50.710;7.180;2024-03-06T11:50:53;17.30;;;13.70;;
13250;SDS011;6692;50.710;7.180;2024-03-06T11:52:53;19.50;;;14.97;;
13250;SDS011;6692;50.710;7.180;2024-03-06T11:54:55;17.03;;;14.17;;
13250;SDS011;6692;50.710;7.180;2024-03-06T11:56:57;16.33;;;14.00;;
13250;SDS011;6692;50.710;7.180;2024-03-06T11:58:56;16.83;;;14.60;;
13250;SDS011;6692;50.710;7.180;2024-03-06T12:00:57;15.67;;;13.40;;
13250;SDS011;6692;50.710;7.180;2024-03-06T12:02:58;18.17;;;15.03;;
13250;SDS011;6692;50.710;7.180;2024-03-06T12:05:01;16.10;;;13.47;;
13250;SDS011;6692;50.710;7.180;2024-03-06T12:07:00;17.43;;;13.83;;
13250;SDS011;6692;50.710;7.180;2024-03-06T12:09:01;15.10;;;12.67;;
13250;SDS011;6692;50.710;7.180;2024-03-06T12:11:02;16.50;;;13.43;;
13250;SDS011;6692;50.710;7.180;2024-03-06T12:13:03;17.13;;;13.87;;
13250;SDS011;6692;50.710;7.180;2024-03-06T12:15:03;16.63;;;13.80;;
13250;SDS011;6692;50.710;7.180;2024-03-06T12:17:05;15.53;;;13.20;;
13250;SDS011;6692;50.710;7.180;2024-03-06T12:19:06;15.30;;;13.60;;
13250;SDS011;6692;50.710;7.180;2024-03-06T12:21:07;16.20;;;13.90;;